Time;durP1;ratioP1;P1;durP2;ratioP2;P2;SDS_P1;SDS_P2;PMS_P1;PMS_P2;Temp;Humidity;BMP_temperature;BMP_pressure;BME280_temperature;BME280_humidity;BME280_pressure;Samples;Min_cycle;Max_cycle;Signal;HPM_P1;HPM_P2
2021/12/08 00:02:02;;;;;;;17.55;5.55;;;2.50;99.90;;;;;;4828205;29;20094;-81
2021/12/08 00:04:28;;;;;;;18.67;5.72;;;2.60;99.90;;;;;;4826831;29;20407;-81
2021/12/08 00:06:53;;;;;;;13.43;4.85;;;2.60;99.90;;;;;;4827088;29;20054;-81
2021/12/08 00:09:45;;;;;;;13.48;5.22;;;2.50;99.90;;;;;;4826729;29;20057;-81
2021/12/08 00:14:58;;;;;;;13.02;5.60;;;2.50;99.90;;;;;;4826664;29;20115;-81
2021/12/08 00:17:24;;;;;;;17.33;4.93;;;2.50;99.90;;;;;;4827647;29;20050;-81
2021/12/08 00:19:50;;;;;;;16.75;5.75;;;2.50;99.90;;;;;;4826516;29;20053;-81
2021/12/08 00:22:16;;;;;;;16.70;5.07;;;2.50;99.90;;;;;;4826424;29;20510;-81
2021/12/08 00:24:43;;;;;;;10.90;4.72;;;2.50;99.90;;;;;;4826628;29;20061;-81
2021/12/08 00:27:09;;;;;;;15.43;5.30;;;2.50;99.90;;;;;;4827555;29;20449;-81
2021/12/08 00:29:35;;;;;;;17.95;7.35;;;2.50;99.90;;;;;;4826650;29;20054;-81
2021/12/08 00:32:00;;;;;;;10.70;5.15;;;2.50;99.90;;;;;;4826557;29;20042;-81
2021/12/08 00:34:26;;;;;;;14.57;4.97;;;2.40;99.90;;;;;;4827526;29;20058;-81
2021/12/08 00:36:56;;;;;;;15.63;6.10;;;2.50;99.90;;;;;;4826052;29;20058;-81
2021/12/08 00:39:23;;;;;;;18.75;6.93;;;2.40;99.90;;;;;;4827057;29;20053;-81
2021/12/08 00:41:49;;;;;;;19.85;6.32;;;2.40;99.90;;;;;;4826157;29;20471;-81
2021/12/08 00:44:15;;;;;;;16.42;6.57;;;2.40;99.90;;;;;;4826359;29;20491;-81
2021/12/08 00:46:40;;;;;;;15.32;6.90;;;2.40;99.90;;;;;;4826392;29;20058;-81
2021/12/08 00:49:08;;;;;;;14.82;6.10;;;2.40;99.90;;;;;;4827821;29;20054;-81
2021/12/08 00:51:35;;;;;;;15.73;6.90;;;2.40;99.90;;;;;;4825891;29;20054;-81
2021/12/08 00:54:01;;;;;;;12.60;5.60;;;2.50;99.90;;;;;;4827267;29;20118;-81
2021/12/08 00:56:27;;;;;;;13.43;5.68;;;2.40;99.90;;;;;;4825796;29;20133;-81
2021/12/08 00:58:52;;;;;;;20.17;7.75;;;2.50;99.90;;;;;;4826137;29;20145;-81
2021/12/08 01:01:18;;;;;;;16.55;6.10;;;2.50;99.90;;;;;;4826133;29;20051;-81
2021/12/08 01:03:45;;;;;;;14.63;6.82;;;2.60;99.90;;;;;;4826867;29;20057;-81
2021/12/08 01:06:13;;;;;;;20.25;7.47;;;2.60;99.90;;;;;;4825689;29;20053;-82
2021/12/08 01:08:39;;;;;;;17.70;7.03;;;2.60;99.90;;;;;;4825626;29;20050;-82
2021/12/08 01:11:09;;;;;;;13.68;6.53;;;2.60;99.90;;;;;;4826998;29;20054;-82
2021/12/08 01:13:36;;;;;;;21.35;7.32;;;2.60;99.90;;;;;;4826943;29;20121;-82
2021/12/08 01:16:02;;;;;;;19.55;7.82;;;2.60;99.90;;;;;;4826770;29;20050;-82
2021/12/08 01:18:29;;;;;;;16.48;7.00;;;2.70;99.90;;;;;;4826693;29;20534;-82
2021/12/08 01:20:58;;;;;;;19.02;9.48;;;2.80;99.90;;;;;;4826987;29;20057;-82
2021/12/08 01:23:25;;;;;;;18.77;8.13;;;2.80;99.90;;;;;;4826713;29;20111;-82
2021/12/08 01:25:51;;;;;;;17.98;7.57;;;2.80;99.90;;;;;;4825508;29;20047;-82
2021/12/08 01:28:20;;;;;;;21.55;8.25;;;2.80;99.90;;;;;;4825448;29;20107;-82
2021/12/08 01:30:46;;;;;;;20.63;7.75;;;2.90;99.90;;;;;;4825686;29;20107;-82
2021/12/08 01:33:12;;;;;;;14.32;6.63;;;2.90;99.90;;;;;;4825371;29;20471;-82
2021/12/08 01:35:39;;;;;;;15.63;7.03;;;3.00;99.90;;;;;;4825482;29;20055;-82
2021/12/08 01:38:05;;;;;;;16.25;6.97;;;3.00;99.90;;;;;;4825475;29;20073;-82
2021/12/08 01:40:31;;;;;;;17.17;7.50;;;3.00;99.90;;;;;;4825245;29;20491;-82
2021/12/08 01:42:59;;;;;;;18.00;6.68;;;3.00;99.90;;;;;;4824876;29;20062;-82
2021/12/08 01:48:14;;;;;;;21.02;7.90;;;3.00;99.90;;;;;;4825041;29;20582;-82
2021/12/08 01:50:42;;;;;;;16.00;6.22;;;3.10;99.90;;;;;;4825386;29;20111;-82
2021/12/08 01:53:09;;;;;;;13.60;6.82;;;3.10;99.90;;;;;;4825303;29;20056;-82
2021/12/08 01:55:35;;;;;;;16.15;7.25;;;3.10;99.90;;;;;;4824984;29;20463;-82
2021/12/08 01:58:01;;;;;;;19.77;7.05;;;3.10;99.90;;;;;;4824788;29;20088;-82
2021/12/08 02:00:30;;;;;;;18.17;9.38;;;3.10;99.90;;;;;;4826114;29;20081;-82
2021/12/08 02:02:56;;;;;;;14.98;7.57;;;3.10;99.90;;;;;;4825127;29;20050;-82
2021/12/08 02:05:23;;;;;;;17.48;8.50;;;3.10;99.90;;;;;;4826193;29;20046;-82
2021/12/08 02:07:49;;;;;;;15.88;7.82;;;3.20;99.90;;;;;;4825150;29;20141;-82
2021/12/08 02:10:15;;;;;;;20.35;8.45;;;3.20;99.90;;;;;;4824797;29;20134;-82
2021/12/08 02:12:41;;;;;;;15.48;6.07;;;3.20;99.90;;;;;;4826328;29;20058;-82
2021/12/08 02:15:10;;;;;;;22.70;9.20;;;3.20;99.90;;;;;;4824608;29;20046;-82
2021/12/08 02:17:37;;;;;;;16.48;7.75;;;3.20;99.90;;;;;;4825919;29;20050;-82
2021/12/08 02:20:05;;;;;;;17.15;8.68;;;3.30;99.90;;;;;;4824074;29;20055;-82
2021/12/08 02:22:32;;;;;;;23.95;9.18;;;3.30;99.90;;;;;;4824932;29;20058;-82
2021/12/08 02:24:57;;;;;;;15.15;7.75;;;3.30;99.90;;;;;;4824659;29;20061;-82
2021/12/08 02:27:23;;;;;;;16.25;7.97;;;3.40;99.90;;;;;;4824441;29;20062;-82
2021/12/08 02:30:00;;;;;;;19.50;8.52;;;3.30;99.90;;;;;;4824719;29;20065;-82
2021/12/08 02:49:01;;;;;;;15.90;7.93;;;3.60;99.90;;;;;;4824272;29;20057;-82
2021/12/08 02:51:26;;;;;;;18.70;9.25;;;3.60;99.90;;;;;;4824502;29;20047;-81
2021/12/08 02:53:52;;;;;;;17.00;8.55;;;3.60;99.90;;;;;;4824449;29;20475;-81
2021/12/08 02:56:18;;;;;;;15.10;8.10;;;3.60;99.90;;;;;;4823925;29;20399;-82
2021/12/08 02:58:44;;;;;;;16.15;8.20;;;3.70;99.90;;;;;;4824217;29;20137;-81
2021/12/08 03:01:12;;;;;;;20.55;10.45;;;3.70;99.90;;;;;;4823989;29;20050;-82
2021/12/08 03:03:39;;;;;;;16.33;9.93;;;3.70;99.90;;;;;;4824049;29;20045;-82
2021/12/08 03:06:05;;;;;;;16.55;9.63;;;3.70;99.90;;;;;;4825231;29;20126;-82
2021/12/08 03:08:31;;;;;;;17.00;8.48;;;3.70;99.90;;;;;;4824019;29;20054;-82
2021/12/08 03:10:58;;;;;;;15.18;8.52;;;3.70;99.90;;;;;;4823838;29;20054;-82
2021/12/08 03:13:53;;;;;;;26.52;12.48;;;3.70;99.90;;;;;;4824045;29;20164;-82
2021/12/08 03:16:18;;;;;;;19.02;10.20;;;3.80;99.90;;;;;;4824397;29;20487;-82
2021/12/08 03:18:44;;;;;;;18.27;8.95;;;3.80;99.90;;;;;;4824136;29;20141;-82
2021/12/08 03:21:10;;;;;;;25.02;11.23;;;3.70;99.90;;;;;;4824100;29;20137;-82
2021/12/08 03:26:28;;;;;;;23.13;11.32;;;3.80;99.90;;;;;;4825090;29;20110;-82
2021/12/08 03:29:17;;;;;;;21.88;11.73;;;3.80;99.90;;;;;;4824024;29;20055;-82
2021/12/08 03:31:45;;;;;;;17.63;9.98;;;3.80;99.90;;;;;;4825244;29;20388;-82
2021/12/08 03:34:11;;;;;;;18.17;9.77;;;3.90;99.90;;;;;;4824781;29;20083;-82
2021/12/08 03:36:37;;;;;;;24.77;13.00;;;3.90;99.90;;;;;;4823473;29;20050;-82
2021/12/08 03:39:05;;;;;;;22.67;11.70;;;3.90;99.90;;;;;;4823787;29;20115;-82
2021/12/08 03:41:33;;;;;;;24.75;12.45;;;3.80;99.90;;;;;;4823538;29;20093;-82
2021/12/08 03:44:01;;;;;;;25.13;12.85;;;3.90;99.90;;;;;;4823504;29;20495;-82
2021/12/08 03:46:28;;;;;;;22.35;12.27;;;3.90;99.90;;;;;;4823421;29;20046;-82
2021/12/08 03:48:54;;;;;;;24.67;13.80;;;4.00;99.90;;;;;;4823637;29;20066;-82
2021/12/08 03:51:20;;;;;;;26.08;13.38;;;3.90;99.90;;;;;;4823410;29;20047;-82
2021/12/08 03:53:46;;;;;;;23.85;12.77;;;4.00;99.90;;;;;;4824733;29;20102;-82
2021/12/08 03:56:12;;;;;;;20.17;11.93;;;3.90;99.90;;;;;;4823357;29;20089;-82
2021/12/08 03:58:38;;;;;;;27.13;14.38;;;4.00;99.90;;;;;;4824621;29;20074;-82
2021/12/08 04:01:06;;;;;;;25.20;13.70;;;3.90;99.90;;;;;;4823415;29;20042;-82
2021/12/08 04:03:34;;;;;;;22.80;13.73;;;4.00;99.90;;;;;;4823838;29;20065;-82
2021/12/08 04:06:06;;;;;;;29.83;14.52;;;4.00;99.90;;;;;;4823467;29;20058;-82
2021/12/08 04:08:43;;;;;;;26.25;14.43;;;4.00;99.90;;;;;;4823604;29;20490;-82
2021/12/08 04:11:11;;;;;;;28.75;14.70;;;4.00;99.90;;;;;;4823387;29;20174;-82
2021/12/08 04:13:44;;;;;;;27.88;15.00;;;4.00;99.90;;;;;;4823080;29;20051;-82
2021/12/08 04:16:12;;;;;;;29.55;14.57;;;4.10;99.90;;;;;;4823243;29;20407;-82
2021/12/08 04:18:39;;;;;;;28.83;15.32;;;4.10;99.90;;;;;;4824408;29;20103;-82
2021/12/08 04:21:07;;;;;;;27.40;14.65;;;4.10;99.90;;;;;;4823474;29;20062;-82
2021/12/08 04:23:36;;;;;;;33.20;17.77;;;4.10;99.90;;;;;;4823148;29;20050;-82
2021/12/08 04:26:07;;;;;;;29.27;14.27;;;4.10;99.90;;;;;;4824180;29;20558;-82
2021/12/08 04:28:33;;;;;;;32.80;16.35;;;4.10;99.90;;;;;;4823657;29;20061;-82
2021/12/08 04:31:09;;;;;;;30.35;14.15;;;4.20;99.90;;;;;;4823025;29;20110;-82
2021/12/08 04:33:36;;;;;;;25.05;14.98;;;4.10;99.90;;;;;;4824308;29;20538;-81
2021/12/08 04:36:07;;;;;;;26.83;14.93;;;4.20;99.90;;;;;;4822956;29;20074;-81
2021/12/08 04:38:38;;;;;;;25.75;14.75;;;4.20;99.90;;;;;;4823146;29;20061;-81
2021/12/08 04:41:10;;;;;;;34.38;18.15;;;4.20;99.90;;;;;;4822929;29;20499;-82
2021/12/08 04:43:53;;;;;;;34.40;16.48;;;4.20;99.90;;;;;;4809867;29;20132;-81
2021/12/08 04:46:50;;;;;;;;;;;4.20;99.90;;;;;;4811634;29;20129;-82
2021/12/08 04:52:15;;;;;;;32.90;16.05;;;4.20;99.90;;;;;;4827325;29;20066;-81
2021/12/08 05:06:07;;;;;;;37.50;17.85;;;4.30;99.90;;;;;;4810987;29;20054;-82
2021/12/08 05:08:42;;;;;;;34.55;19.00;;;4.40;99.90;;;;;;4810760;29;20095;-82
2021/12/08 05:11:16;;;;;;;35.00;18.95;;;4.30;99.90;;;;;;4810897;29;20062;-82
2021/12/08 05:13:44;;;;;;;33.55;16.75;;;4.40;99.90;;;;;;4827242;29;20053;-82
2021/12/08 05:16:12;;;;;;;29.90;17.02;;;4.40;99.90;;;;;;4810616;29;20042;-82
2021/12/08 05:18:41;;;;;;;36.00;17.20;;;4.40;99.90;;;;;;4826690;29;20061;-82
2021/12/08 05:21:36;;;;;;;32.13;16.13;;;4.40;99.90;;;;;;4810448;29;20102;-82
2021/12/08 05:24:10;;;;;;;30.80;18.10;;;4.40;99.90;;;;;;4803876;29;20137;-82
2021/12/08 05:26:53;;;;;;;44.08;20.88;;;4.40;99.90;;;;;;4826749;29;20053;-82
2021/12/08 05:29:22;;;;;;;;;;;4.50;99.90;;;;;;4811018;29;20383;-82
2021/12/08 05:31:49;;;;;;;27.83;14.93;;;4.50;99.90;;;;;;4810454;29;19931;-82
2021/12/08 05:34:15;;;;;;;32.25;16.95;;;4.50;99.90;;;;;;4810501;29;20593;-82
2021/12/08 05:36:41;;;;;;;34.28;16.90;;;4.50;99.90;;;;;;4826305;29;20119;-82
2021/12/08 05:39:12;;;;;;;37.20;15.50;;;4.50;99.90;;;;;;4826382;29;20399;-82
2021/12/08 05:41:41;;;;;;;35.60;16.95;;;4.50;99.90;;;;;;4812102;29;20096;-82
2021/12/08 05:44:08;;;;;;;29.58;15.38;;;4.50;99.90;;;;;;4840498;29;20058;-82
2021/12/08 05:46:35;;;;;;;32.38;15.40;;;4.50;99.90;;;;;;4826506;29;20125;-82
2021/12/08 05:49:03;;;;;;;35.08;15.55;;;4.60;99.90;;;;;;4825394;29;20078;-82
2021/12/08 05:51:33;;;;;;;31.10;17.30;;;4.60;99.90;;;;;;4824993;29;20088;-82
2021/12/08 05:54:03;;;;;;;32.20;14.50;;;4.70;99.90;;;;;;4824224;29;20479;-82
2021/12/08 05:56:30;;;;;;;33.58;15.77;;;4.70;99.90;;;;;;4826281;29;20054;-82
2021/12/08 05:58:58;;;;;;;27.60;13.65;;;4.80;99.90;;;;;;4825033;29;20052;-82
2021/12/08 06:01:30;;;;;;;33.78;17.45;;;4.80;99.90;;;;;;4825291;29;20046;-82
2021/12/08 06:03:56;;;;;;;29.48;13.35;;;4.80;99.90;;;;;;4826030;29;20046;-82
2021/12/08 06:06:24;;;;;;;32.45;14.30;;;4.80;99.90;;;;;;4824837;29;20047;-82
2021/12/08 06:08:51;;;;;;;32.05;14.05;;;4.90;99.90;;;;;;4826063;29;20054;-82
2021/12/08 06:11:18;;;;;;;29.60;13.55;;;4.90;99.90;;;;;;4826131;29;20087;-82
2021/12/08 06:13:46;;;;;;;23.38;11.73;;;4.90;99.90;;;;;;4824891;29;20110;-82
2021/12/08 06:16:13;;;;;;;30.42;12.80;;;4.90;99.90;;;;;;4824564;29;20062;-82
2021/12/08 06:18:40;;;;;;;28.65;13.00;;;4.90;99.90;;;;;;4826410;29;20054;-82
2021/12/08 06:21:12;;;;;;;25.45;12.30;;;4.90;99.90;;;;;;4826194;29;20447;-82
2021/12/08 06:23:39;;;;;;;23.88;11.90;;;4.90;99.90;;;;;;4824752;29;20480;-82
2021/12/08 06:26:07;;;;;;;24.50;11.70;;;4.90;99.90;;;;;;4824864;29;20073;-82
2021/12/08 06:28:33;;;;;;;23.02;11.85;;;4.90;99.90;;;;;;4824600;29;20432;-82
2021/12/08 06:30:59;;;;;;;24.65;12.55;;;4.90;99.90;;;;;;4824448;29;20082;-82
2021/12/08 06:33:26;;;;;;;23.85;10.45;;;4.90;99.90;;;;;;4824484;29;20077;-82
2021/12/08 06:35:59;;;;;;;21.17;10.70;;;4.90;99.90;;;;;;4824615;29;20054;-82
2021/12/08 06:38:27;;;;;;;29.70;11.32;;;4.90;99.90;;;;;;4825893;29;20110;-82
2021/12/08 06:40:53;;;;;;;29.73;12.45;;;4.90;99.90;;;;;;4825594;29;20411;-82
2021/12/08 06:43:24;;;;;;;26.45;11.93;;;4.80;99.90;;;;;;4824442;29;20065;-82
2021/12/08 06:45:52;;;;;;;23.42;10.88;;;4.90;99.90;;;;;;4824367;29;20505;-82
2021/12/08 06:48:23;;;;;;;28.50;11.75;;;4.90;99.90;;;;;;4824444;29;20506;-82
2021/12/08 06:51:03;;;;;;;29.10;12.52;;;4.90;99.90;;;;;;4825756;29;20089;-82
2021/12/08 06:53:30;;;;;;;23.10;10.63;;;5.00;99.90;;;;;;4824355;29;20043;-82
2021/12/08 06:56:05;;;;;;;34.45;12.75;;;4.90;99.90;;;;;;4825161;29;20058;-82
2021/12/08 06:58:35;;;;;;;25.92;11.80;;;5.00;99.90;;;;;;4825066;29;20051;-82
2021/12/08 07:01:48;;;;;;;21.90;10.27;;;4.90;99.90;;;;;;4824162;29;20050;-82
2021/12/08 07:04:27;;;;;;;25.88;11.05;;;5.00;99.90;;;;;;4823655;29;20149;-82
2021/12/08 07:07:11;;;;;;;27.27;12.05;;;4.90;99.90;;;;;;4823983;29;20054;-82
2021/12/08 07:09:41;;;;;;;;;;;5.00;99.90;;;;;;4825718;29;20079;-82
2021/12/08 07:12:15;;;;;;;22.95;10.65;;;5.00;99.90;;;;;;4823947;29;20385;-82
2021/12/08 07:14:52;;;;;;;24.67;10.43;;;4.90;99.90;;;;;;4824138;29;20439;-82
2021/12/08 07:17:22;;;;;;;21.85;9.93;;;4.90;99.90;;;;;;4823729;29;20138;-82
2021/12/08 07:20:02;;;;;;;29.00;10.77;;;4.90;99.90;;;;;;4824876;29;20046;-82
2021/12/08 07:22:32;;;;;;;20.00;9.40;;;4.90;99.90;;;;;;4825102;29;20061;-82
2021/12/08 07:24:59;;;;;;;20.35;10.13;;;4.80;99.90;;;;;;4825437;29;20058;-82
2021/12/08 07:27:29;;;;;;;26.70;10.80;;;4.80;99.90;;;;;;4823768;29;20187;-82
2021/12/08 07:29:57;;;;;;;23.80;10.30;;;4.80;99.90;;;;;;4823712;29;20051;-82
2021/12/08 07:32:36;;;;;;;25.40;9.57;;;4.80;99.90;;;;;;4823738;29;20094;-82
2021/12/08 07:35:08;;;;;;;21.10;8.70;;;4.80;99.90;;;;;;4824082;29;20092;-82
2021/12/08 07:37:35;;;;;;;29.47;9.60;;;4.80;99.90;;;;;;4823626;29;20046;-83
2021/12/08 07:40:21;;;;;;;20.88;11.23;;;4.90;99.90;;;;;;4823649;29;20382;-82
2021/12/08 07:42:59;;;;;;;19.55;8.85;;;4.80;99.90;;;;;;4823165;29;20137;-82
2021/12/08 07:45:31;;;;;;;22.65;9.02;;;4.80;99.90;;;;;;4822258;29;20157;-82
2021/12/08 07:48:00;;;;;;;21.15;8.85;;;4.80;99.90;;;;;;4823329;29;20068;-82
2021/12/08 07:50:35;;;;;;;22.35;9.48;;;4.80;99.90;;;;;;4823891;29;20046;-82
2021/12/08 07:53:04;;;;;;;18.55;8.18;;;4.80;99.90;;;;;;4823558;29;20098;-82
2021/12/08 07:55:37;;;;;;;19.33;9.15;;;4.80;99.90;;;;;;4823211;29;20050;-82
2021/12/08 07:58:04;;;;;;;19.05;8.30;;;4.70;99.90;;;;;;4823041;29;20058;-82
2021/12/08 08:00:37;;;;;;;16.10;7.50;;;4.70;99.90;;;;;;4823146;29;20503;-82
2021/12/08 08:03:04;;;;;;;17.10;7.40;;;4.70;99.90;;;;;;4823194;29;20054;-82
2021/12/08 08:05:32;;;;;;;21.73;8.27;;;4.70;99.90;;;;;;4823391;29;20053;-82
2021/12/08 08:08:02;;;;;;;18.25;8.00;;;4.70;99.90;;;;;;4824229;29;20491;-82
2021/12/08 08:10:35;;;;;;;17.23;6.90;;;4.70;99.90;;;;;;4824463;29;20143;-82
2021/12/08 08:13:06;;;;;;;18.42;7.53;;;4.70;99.90;;;;;;4824349;29;20094;-82
2021/12/08 08:15:37;;;;;;;18.27;6.90;;;4.70;99.90;;;;;;4828313;29;20114;-81
2021/12/08 08:18:07;;;;;;;16.00;7.55;;;4.70;99.90;;;;;;4829458;29;20058;-82
2021/12/08 08:20:38;;;;;;;16.65;7.80;;;4.70;99.90;;;;;;4826137;29;20114;-81
2021/12/08 08:23:04;;;;;;;13.68;6.43;;;4.70;99.90;;;;;;4826438;29;20134;-82
2021/12/08 08:25:37;;;;;;;16.77;6.20;;;4.70;99.90;;;;;;4827212;29;20520;-82
2021/12/08 08:28:05;;;;;;;18.15;7.82;;;4.70;99.90;;;;;;4826076;29;20050;-82
2021/12/08 08:30:36;;;;;;;16.40;7.05;;;4.70;99.90;;;;;;4826195;29;20221;-81
2021/12/08 08:33:01;;;;;;;14.95;7.03;;;4.70;99.90;;;;;;4826279;29;20465;-81
2021/12/08 08:35:33;;;;;;;18.73;6.15;;;4.80;99.90;;;;;;4827184;29;20138;-82
2021/12/08 08:38:01;;;;;;;19.70;7.20;;;4.80;99.90;;;;;;4826972;29;20053;-82
2021/12/08 08:40:32;;;;;;;15.85;5.57;;;4.70;99.90;;;;;;4826137;29;20050;-82
2021/12/08 08:42:59;;;;;;;18.30;5.80;;;4.70;99.90;;;;;;4825605;29;20098;-82
2021/12/08 08:45:27;;;;;;;18.48;6.18;;;4.70;99.90;;;;;;4825702;29;20050;-82
2021/12/08 08:47:59;;;;;;;16.70;6.32;;;4.70;99.90;;;;;;4826219;29;20096;-82
2021/12/08 08:50:32;;;;;;;16.83;6.03;;;4.60;99.90;;;;;;4825651;29;20591;-82
2021/12/08 08:52:59;;;;;;;13.95;5.38;;;4.70;99.90;;;;;;4825858;29;20092;-81
2021/12/08 08:55:34;;;;;;;13.93;4.25;;;4.70;99.90;;;;;;4825797;29;20122;-81
2021/12/08 08:58:02;;;;;;;18.50;4.82;;;4.80;99.90;;;;;;4826955;29;20065;-82
2021/12/08 09:00:44;;;;;;;18.02;5.82;;;4.80;99.90;;;;;;4826643;29;20058;-82
2021/12/08 09:03:15;;;;;;;10.05;4.28;;;4.70;99.90;;;;;;4825754;29;20128;-81
2021/12/08 09:05:51;;;;;;;11.93;4.55;;;4.80;99.90;;;;;;4826809;29;20057;-83
2021/12/08 09:08:18;;;;;;;15.90;4.82;;;4.70;99.90;;;;;;4826598;29;20050;-82
2021/12/08 09:10:56;;;;;;;11.45;4.32;;;4.70;99.90;;;;;;4843290;29;20050;-83
2021/12/08 09:13:46;;;;;;;14.00;4.20;;;4.70;99.90;;;;;;4843605;29;20506;-84
2021/12/08 09:16:23;;;;;;;14.50;4.68;;;4.70;99.90;;;;;;4834831;29;20064;-83
2021/12/08 09:19:02;;;;;;;15.10;3.83;;;4.70;99.90;;;;;;4844140;29;20103;-83
2021/12/08 09:21:36;;;;;;;10.35;4.45;;;4.70;99.90;;;;;;4837384;29;20435;-84
2021/12/08 09:24:21;;;;;;;12.18;4.30;;;4.70;99.90;;;;;;4844793;29;20078;-83
2021/12/08 09:26:57;;;;;;;9.60;3.30;;;4.70;99.90;;;;;;4843382;29;20486;-84
2021/12/08 09:29:28;;;;;;;7.18;3.25;;;4.70;99.90;;;;;;4843233;29;20049;-82
2021/12/08 09:32:06;;;;;;;12.30;3.47;;;4.70;99.90;;;;;;4843503;29;20064;-84
2021/12/08 09:34:38;;;;;;;22.40;3.22;;;4.70;99.90;;;;;;4843267;29;20058;-84
2021/12/08 09:37:08;;;;;;;10.80;3.20;;;4.80;99.90;;;;;;4843191;29;20050;-84
2021/12/08 09:39:39;;;;;;;9.95;3.92;;;4.80;99.90;;;;;;4842912;29;20065;-84
2021/12/08 09:42:31;;;;;;;13.30;3.15;;;4.80;99.90;;;;;;4843069;29;20065;-84
2021/12/08 09:45:04;;;;;;;7.55;3.03;;;4.80;99.90;;;;;;4843039;29;20076;-83
2021/12/08 09:47:30;;;;;;;10.38;3.63;;;4.80;99.90;;;;;;4843365;29;20057;-84
2021/12/08 09:49:57;;;;;;;11.85;3.75;;;4.90;99.90;;;;;;4842433;29;20045;-83
2021/12/08 09:52:27;;;;;;;13.30;3.55;;;4.90;99.90;;;;;;4842979;29;20500;-83
2021/12/08 09:54:58;;;;;;;12.45;3.15;;;5.00;99.90;;;;;;4843310;29;20526;-84
2021/12/08 09:57:25;;;;;;;14.55;3.65;;;5.10;99.90;;;;;;4842840;29;20050;-84
2021/12/08 09:59:51;;;;;;;11.10;3.80;;;5.20;99.90;;;;;;4842931;29;20089;-84
2021/12/08 10:02:31;;;;;;;11.48;3.97;;;5.20;99.90;;;;;;4844155;29;20102;-84
2021/12/08 10:04:58;;;;;;;10.93;3.63;;;5.20;99.90;;;;;;4842739;29;20066;-84
2021/12/08 10:07:25;;;;;;;10.38;3.28;;;5.20;99.90;;;;;;4842837;29;20057;-84
2021/12/08 10:09:51;;;;;;;12.77;3.60;;;5.20;99.90;;;;;;4841995;29;20106;-84
2021/12/08 10:12:17;;;;;;;14.60;3.05;;;5.30;99.90;;;;;;4842803;29;20054;-84
2021/12/08 10:14:46;;;;;;;9.95;3.50;;;5.20;99.90;;;;;;4842483;29;20173;-84
2021/12/08 10:17:13;;;;;;;9.68;3.72;;;5.20;99.90;;;;;;4843078;29;20046;-84
2021/12/08 10:19:39;;;;;;;9.95;3.33;;;5.30;99.90;;;;;;4842530;29;20054;-84
2021/12/08 10:22:19;;;;;;;10.98;3.90;;;5.30;99.90;;;;;;4843553;29;20057;-83
2021/12/08 10:25:10;;;;;;;15.80;4.65;;;5.30;99.90;;;;;;4842394;29;20052;-83
2021/12/08 10:28:02;;;;;;;13.73;5.35;;;5.40;99.90;;;;;;4843644;29;20053;-84
2021/12/08 10:30:28;;;;;;;18.90;4.55;;;5.40;99.90;;;;;;4842122;29;20054;-84
2021/12/08 10:32:54;;;;;;;16.67;4.30;;;5.50;99.90;;;;;;4842517;29;20112;-84
2021/12/08 10:36:00;;;;;;;15.43;4.63;;;5.50;99.90;;;;;;4842198;29;20054;-84
2021/12/08 10:38:37;;;;;;;9.13;4.15;;;5.60;99.90;;;;;;4842089;29;20057;-84
2021/12/08 10:41:07;;;;;;;14.07;4.15;;;5.60;99.90;;;;;;4842430;29;20149;-84
2021/12/08 10:43:33;;;;;;;13.43;4.38;;;5.60;99.90;;;;;;4826974;29;20285;-84
2021/12/08 10:46:08;;;;;;;9.38;3.60;;;5.70;99.90;;;;;;4843148;29;20050;-84
2021/12/08 10:48:44;;;;;;;14.57;5.28;;;5.70;99.90;;;;;;4826520;29;20050;-84
2021/12/08 10:54:27;;;;;;;17.30;5.13;;;5.60;99.90;;;;;;4843250;29;20123;-83
2021/12/08 10:56:57;;;;;;;12.98;4.57;;;5.60;99.90;;;;;;4827114;29;20053;-83
2021/12/08 10:59:57;;;;;;;7.75;3.28;;;5.70;99.90;;;;;;4826899;29;20057;-85
2021/12/08 11:02:48;;;;;;;10.95;3.65;;;5.70;99.90;;;;;;4826729;29;20079;-84
2021/12/08 11:05:26;;;;;;;15.98;4.43;;;5.70;99.90;;;;;;4826852;29;20447;-83
2021/12/08 11:08:25;;;;;;;11.43;3.30;;;5.80;99.90;;;;;;4826654;29;20097;-86
2021/12/08 11:11:12;;;;;;;8.10;3.30;;;5.80;99.90;;;;;;4842765;29;20053;-86
2021/12/08 11:13:47;;;;;;;13.25;3.75;;;5.80;99.90;;;;;;4826021;29;20042;-84
2021/12/08 11:16:44;;;;;;;;;;;;;;;;;;;;;
2021/12/08 11:19:24;;;;;;;10.00;3.42;;;5.90;99.90;;;;;;4837930;29;20137;-86
2021/12/08 11:25:57;;;;;;;17.17;4.82;;;5.90;99.90;;;;;;4854962;29;20057;-86
2021/12/08 11:32:18;;;;;;;11.57;3.90;;;6.00;99.90;;;;;;4840543;29;20053;-88
2021/12/08 11:35:04;;;;;;;;;;;;;;;;;;;;;
2021/12/08 11:38:44;;;;;;;12.23;4.65;;;6.00;99.90;;;;;;4860812;29;20502;-85
2021/12/08 11:41:45;;;;;;;12.57;4.00;;;6.00;99.90;;;;;;4815116;29;20415;-87
2021/12/08 11:48:53;;;;;;;12.32;3.95;;;6.00;99.90;;;;;;4805988;29;20050;-89
2021/12/08 12:03:57;;;;;;;9.93;3.33;;;5.90;99.90;;;;;;4861273;23;20084;-87
2021/12/08 12:06:49;;;;;;;13.50;5.28;;;5.90;99.90;;;;;;4829402;29;20049;-87
2021/12/08 12:09:47;;;;;;;12.07;4.38;;;5.80;99.90;;;;;;4858313;29;20089;-87
2021/12/08 12:12:43;;;;;;;;;;;;;;;;;;;;;
2021/12/08 12:16:10;;;;;;;;;;;;;;;;;;;;;
2021/12/08 12:18:39;;;;;;;10.02;3.50;;;5.80;99.90;;;;;;4807625;29;20141;-87
2021/12/08 12:21:33;;;;;;;11.60;4.00;;;5.70;99.90;;;;;;4828830;29;20133;-88
2021/12/08 12:24:14;;;;;;;15.65;4.47;;;5.70;99.90;;;;;;4826910;29;20065;-88
2021/12/08 12:27:03;;;;;;;;;;;;;;;;;;;;;
2021/12/08 12:29:54;;;;;;;9.65;3.35;;;5.70;99.90;;;;;;4844849;29;20510;-86
2021/12/08 12:33:03;;;;;;;11.40;4.55;;;5.80;99.90;;;;;;4828854;29;20046;-86
2021/12/08 12:35:31;;;;;;;13.63;3.88;;;5.70;99.90;;;;;;4828773;29;20486;-86
2021/12/08 12:38:07;;;;;;;11.65;4.07;;;5.70;99.90;;;;;;4829106;29;20053;-88
2021/12/08 12:40:47;;;;;;;9.25;3.33;;;5.80;99.90;;;;;;4828860;29;20062;-86
2021/12/08 12:43:37;;;;;;;12.55;3.97;;;5.70;99.90;;;;;;4842425;29;20503;-86
2021/12/08 12:46:15;;;;;;;8.52;3.50;;;5.70;99.90;;;;;;4847318;29;20118;-85
2021/12/08 12:48:53;;;;;;;9.13;3.33;;;5.70;99.90;;;;;;4840583;29;20388;-87
2021/12/08 12:51:24;;;;;;;9.32;3.58;;;5.70;99.90;;;;;;4828921;29;20506;-86
2021/12/08 12:54:20;;;;;;;9.65;3.53;;;5.70;99.90;;;;;;4832904;29;20060;-86
2021/12/08 12:56:50;;;;;;;10.20;3.58;;;5.70;99.90;;;;;;4826206;29;20058;-85
2021/12/08 12:59:20;;;;;;;10.63;3.97;;;5.70;99.90;;;;;;4828789;29;20550;-85
2021/12/08 13:02:02;;;;;;;14.50;4.55;;;5.70;99.90;;;;;;4845343;29;20046;-85
2021/12/08 13:04:29;;;;;;;12.68;5.45;;;5.70;99.90;;;;;;4828309;29;20050;-83
2021/12/08 13:07:01;;;;;;;8.35;3.70;;;5.70;99.90;;;;;;4828398;29;20482;-86
2021/12/08 13:09:35;;;;;;;11.93;4.13;;;5.70;99.90;;;;;;4828439;29;20060;-87
2021/12/08 13:12:24;;;;;;;10.40;3.30;;;5.70;99.90;;;;;;4828341;29;20114;-89
2021/12/08 13:15:13;;;;;;;13.82;3.45;;;5.70;99.90;;;;;;4845253;29;20046;-89
2021/12/08 13:18:09;;;;;;;15.02;3.25;;;5.70;99.90;;;;;;4844502;29;20057;-86
2021/12/08 13:20:58;;;;;;;9.85;3.65;;;5.70;99.90;;;;;;4863253;29;20085;-87
2021/12/08 13:23:29;;;;;;;14.45;3.35;;;5.60;99.90;;;;;;4846807;29;20158;-86
2021/12/08 13:26:03;;;;;;;10.77;4.18;;;5.70;99.90;;;;;;4846755;29;20064;-87
2021/12/08 13:28:37;;;;;;;12.65;4.10;;;5.60;99.90;;;;;;4846558;29;20136;-87
2021/12/08 13:31:20;;;;;;;8.85;3.67;;;5.60;99.90;;;;;;4846856;29;20481;-87
2021/12/08 13:34:01;;;;;;;9.32;2.95;;;5.70;99.90;;;;;;4846711;29;20058;-87
2021/12/08 13:36:36;;;;;;;11.45;2.80;;;5.70;99.90;;;;;;4846274;29;20058;-87
2021/12/08 13:39:10;;;;;;;12.52;3.10;;;5.70;99.90;;;;;;4841389;29;20046;-86
2021/12/08 13:41:37;;;;;;;;;;;5.60;99.90;;;;;;4829637;29;20058;-88
2021/12/08 13:44:25;;;;;;;14.15;4.30;;;5.70;99.90;;;;;;4827945;29;19963;-87
2021/12/08 13:46:58;;;;;;;9.90;3.20;;;5.60;99.90;;;;;;4827790;29;20422;-87
2021/12/08 13:49:48;;;;;;;11.02;3.00;;;5.70;99.90;;;;;;4827940;29;20049;-88
2021/12/08 13:52:22;;;;;;;10.27;3.20;;;5.60;99.90;;;;;;4828058;29;20532;-88
2021/12/08 13:55:16;;;;;;;8.65;2.90;;;5.70;99.90;;;;;;4828259;29;20363;-87
2021/12/08 13:57:43;;;;;;;;;;;5.60;99.90;;;;;;4828308;29;20506;-87
2021/12/08 14:00:18;;;;;;;13.20;4.22;;;5.70;99.90;;;;;;4827909;29;19997;-87
2021/12/08 14:02:51;;;;;;;8.93;3.78;;;5.60;99.90;;;;;;4832307;29;20058;-88
2021/12/08 14:05:47;;;;;;;11.52;4.25;;;5.60;99.90;;;;;;4843197;29;20410;-87
2021/12/08 14:08:19;;;;;;;20.10;6.25;;;5.60;99.90;;;;;;4842862;29;20487;-87
2021/12/08 14:10:47;;;;;;;18.00;4.72;;;5.60;99.90;;;;;;4842912;29;20053;-87
2021/12/08 14:13:24;;;;;;;15.95;5.82;;;5.60;99.90;;;;;;4842753;29;20054;-87
2021/12/08 14:16:01;;;;;;;14.15;5.95;;;5.60;99.90;;;;;;4842126;29;20506;-87
2021/12/08 14:18:38;;;;;;;10.13;4.70;;;5.60;99.90;;;;;;4842697;29;20102;-87
2021/12/08 14:21:05;;;;;;;16.67;4.70;;;5.60;99.90;;;;;;4842847;29;20086;-88
2021/12/08 14:23:34;;;;;;;11.55;5.30;;;5.60;99.90;;;;;;4842514;29;20058;-87
2021/12/08 14:26:06;;;;;;;12.82;5.25;;;5.50;99.90;;;;;;4859368;29;20402;-87
2021/12/08 14:28:46;;;;;;;11.30;4.85;;;5.50;99.90;;;;;;4860783;29;20050;-87
2021/12/08 14:31:32;;;;;;;15.90;6.35;;;5.50;99.90;;;;;;4860696;29;20045;-87